< < Back
Terminal Aerodrome Forecast


Current Version              Previous Versions:   1  2  3  4  5  6  7  8  9  

Terminal Aerodrome Forecast

106
FTUS42 KTAE 051808 AAA
TAFVLD
TAF AMD
KVLD 051808Z 0518/0618 36010G18KT P6SM SKC
     FM052300 01004KT P6SM FEW250
     FM061500 04008KT P6SM BKN050=



Latest METAR

109
SAUS70 KWBC 060300 RRE
MTRVLD
METAR KVLD 060253Z AUTO 00000KT 10SM CLR 03/01 A3035 RMK AO2 SLP287
T00280011 51005


USA.gov is the U.S. government's official web portal to all federal, state and local government web resources and services.